KLWV/LWV METAR and TAF weather

Enter ICAO airport designator
Station Type Date Time Source
KLWV METAR 2019/12/06 01:53 UTC NOAA

KLWV 060153Z AUTO 17007KT 10SM OVC110 07/02 A3004 RMK AO2 SLP175 T00670017


Station Type Date Time Source
KLWV Decoded METAR 2019/12/06 01:53 UTC NOAA

LAWRENCEVILLE-VINCENNES INTERNATIONAL , IL, United States (KLWV) 38-46N 87-36W 131M
Dec 05, 2019 - 08:53 PM EST / 2019.12.06 0153 UTC
Wind: from the S (170 degrees) at 8 MPH (7 KT):0
Visibility: 10 mile(s):0
Sky conditions: overcast
Temperature: 44.1 F (6.7 C)
Dew Point: 35.1 F (1.7 C)
Relative Humidity: 70%
Pressure (altimeter): 30.04 in. Hg (1017 hPa)
ob: KLWV 060153Z AUTO 17007KT 10SM OVC110 07/02 A3004 RMK AO2 SLP175 T00670017
cycle: 2

Station Type Date Time Source
KLWV TAF UTC NOAA

Error!

Example: see airport list